Terminal Aerodrome Forecast
Issued by NWS

Home | Current Version | Previous Version | Text Only | Print | Product List | Glossary On
Versions: 1 2 3 4 5 6 7 8 9 10 11 12 13 14 15 16
000
FTUS41 KBOX 212340
TAFFMH
TAF
KFMH 212340Z 2200/2224 22012G22KT P6SM BKN250
     FM220700 21009KT P6SM BKN200
     FM221100 19008KT P6SM -RA OVC070
     FM221300 20009KT 3SM -RA OVC025
     FM221400 21009KT 2SM RA SCT008 OVC015
     FM221800 25008KT 3SM -RA BR SCT003 OVC008
     FM221900 29008KT 6SM -RA BR OVC015
     FM222200 33009KT P6SM BKN025
     FM222300 33011G19KT P6SM SCT015=

USA.gov is the U.S. government's official web portal to all federal, state and local government web resources and services.